Time;durP1;ratioP1;P1;durP2;ratioP2;P2;SDS_P1;SDS_P2;PMS_P1;PMS_P2;Temp;Humidity;BMP_temperature;BMP_pressure;BME280_temperature;BME280_humidity;BME280_pressure;Samples;Min_cycle;Max_cycle;Signal;HPM_P1;HPM_P2
2022/03/07 00:00:30;;;;;;;5.93;4.60;;;;;;;-0.52;55.52;100906.13;5048976;28;20287;-60
2022/03/07 00:02:55;;;;;;;4.90;4.43;;;;;;;-0.51;55.32;100903.66;5037435;28;20233;-60
2022/03/07 00:05:21;;;;;;;5.30;4.80;;;;;;;-0.48;55.56;100910.38;5064838;28;20669;-59
2022/03/07 00:07:47;;;;;;;6.47;5.87;;;;;;;-0.55;55.88;100904.44;5051036;28;20521;-59
2022/03/07 00:10:12;;;;;;;5.93;5.40;;;;;;;-0.53;55.72;100904.47;5044105;28;20176;-59
2022/03/07 00:12:37;;;;;;;5.10;4.50;;;;;;;-0.61;56.04;100912.00;5051803;28;20181;-58
2022/03/07 00:15:04;;;;;;;5.27;4.77;;;;;;;-0.64;56.25;100909.47;5046466;28;20211;-58
2022/03/07 00:17:29;;;;;;;7.90;4.80;;;;;;;-0.75;56.47;100909.41;5067247;28;20187;-59
2022/03/07 00:19:54;;;;;;;4.77;4.37;;;;;;;-0.75;57.18;100916.16;5052819;28;20179;-59
2022/03/07 00:22:20;;;;;;;5.87;4.33;;;;;;;-0.82;57.12;100912.75;5058358;28;20234;-59
2022/03/07 00:24:45;;;;;;;4.87;4.10;;;;;;;-0.86;57.03;100909.34;5052986;28;20179;-59
2022/03/07 00:27:10;;;;;;;5.40;4.67;;;;;;;-0.84;57.31;100909.38;5052681;28;20203;-59
2022/03/07 00:29:35;;;;;;;6.40;4.63;;;;;;;-0.90;57.23;100906.81;5064189;28;20206;-59
2022/03/07 00:32:01;;;;;;;4.90;4.40;;;;;;;-0.90;57.49;100907.66;5041709;28;20255;-58
2022/03/07 00:34:26;;;;;;;5.40;4.57;;;;;;;-0.97;57.71;100921.06;5066255;28;20201;-59
2022/03/07 00:36:51;;;;;;;6.60;4.37;;;;;;;-1.01;58.00;100920.22;5072752;28;20701;-60
2022/03/07 00:39:17;;;;;;;6.63;4.63;;;;;;;-1.06;58.04;100919.34;5070503;28;20181;-60
2022/03/07 00:41:42;;;;;;;5.47;3.87;;;;;;;-1.07;58.81;100917.63;5075323;28;20329;-59
2022/03/07 00:44:07;;;;;;;4.40;4.00;;;;;;;-1.17;58.93;100923.47;5071181;28;20655;-58
2022/03/07 00:46:33;;;;;;;4.80;4.40;;;;;;;-1.16;59.39;100927.69;5072726;28;20182;-58
2022/03/07 00:48:58;;;;;;;6.03;4.30;;;;;;;-1.27;59.17;100926.78;5071604;28;20212;-58
2022/03/07 00:51:24;;;;;;;4.90;3.97;;;;;;;-1.32;59.25;100924.22;5061089;28;20219;-59
2022/03/07 00:53:49;;;;;;;4.87;3.97;;;;;;;-1.32;59.08;100931.78;5065749;28;20227;-58
2022/03/07 00:56:14;;;;;;;4.37;3.63;;;;;;;-1.37;59.65;100928.38;5072191;28;20191;-60
2022/03/07 00:58:39;;;;;;;3.87;3.40;;;;;;;-1.43;59.53;100934.22;5071787;28;20179;-58
2022/03/07 01:01:05;;;;;;;5.17;3.83;;;;;;;-1.44;59.64;100924.94;5070394;28;20269;-58
2022/03/07 01:03:30;;;;;;;3.83;3.43;;;;;;;-1.47;59.66;100937.56;5079246;28;20169;-58
2022/03/07 01:05:55;;;;;;;5.23;3.60;;;;;;;-1.52;59.79;100924.88;5070592;28;20178;-60
2022/03/07 01:08:22;;;;;;;4.80;3.50;;;;;;;-1.59;59.09;100929.88;5070791;28;20260;-58
2022/03/07 01:10:48;;;;;;;4.40;4.00;;;;;;;-1.64;59.54;100930.69;5063897;28;20228;-59
2022/03/07 01:13:13;;;;;;;4.13;3.60;;;;;;;-1.66;59.69;100932.34;5081699;28;20801;-58
2022/03/07 01:15:39;;;;;;;4.37;3.97;;;;;;;-1.68;58.63;100926.44;5071614;28;20181;-57
2022/03/07 01:18:04;;;;;;;4.17;3.87;;;;;;;-1.72;59.20;100932.28;5071434;28;20184;-58
2022/03/07 01:20:30;;;;;;;4.70;4.20;;;;;;;-1.78;58.29;100922.13;5063822;28;20692;-60
2022/03/07 01:22:56;;;;;;;5.30;3.53;;;;;;;-1.82;57.62;100921.25;5083727;28;20589;-58
2022/03/07 01:25:21;;;;;;;3.90;3.60;;;;;;;-1.83;57.47;100923.78;5071678;28;20249;-59
2022/03/07 01:27:46;;;;;;;3.80;3.50;;;;;;;-1.87;56.94;100922.03;5071174;28;20220;-58
2022/03/07 01:30:12;;;;;;;3.80;3.37;;;;;;;-1.90;56.95;100919.50;5064645;28;20257;-60
2022/03/07 01:32:37;;;;;;;4.60;3.90;;;;;;;-1.91;56.16;100918.66;5069223;28;20640;-58
2022/03/07 01:35:04;;;;;;;4.33;3.87;;;;;;;-1.91;56.25;100915.28;5071906;28;20187;-58
2022/03/07 01:37:29;;;;;;;4.57;3.87;;;;;;;-1.90;55.70;100914.44;5069581;28;20216;-57
2022/03/07 01:39:54;;;;;;;4.73;4.33;;;;;;;-1.90;55.89;100912.75;5070327;28;20484;-59
2022/03/07 01:42:20;;;;;;;4.80;4.13;;;;;;;-1.88;55.63;100916.16;5061251;28;20817;-58
2022/03/07 01:44:45;;;;;;;5.13;4.17;;;;;;;-1.87;55.81;100914.47;5071758;28;20558;-59
2022/03/07 01:47:11;;;;;;;5.47;4.20;;;;;;;-1.87;55.46;100909.41;5071410;28;20177;-59
2022/03/07 01:49:36;;;;;;;5.23;4.20;;;;;;;-1.85;55.18;100906.13;5071147;28;20174;-58
2022/03/07 01:52:02;;;;;;;4.40;4.00;;;;;;;-1.84;54.70;100905.25;5060365;28;20728;-58
2022/03/07 01:54:28;;;;;;;4.40;4.10;;;;;;;-1.81;54.33;100900.25;5070272;28;20636;-58
2022/03/07 01:56:54;;;;;;;5.00;4.50;;;;;;;-1.81;54.14;100909.47;5070273;28;20419;-60
2022/03/07 01:59:22;;;;;;;5.37;4.87;;;;;;;-1.82;54.59;100907.81;5069589;28;20212;-60
2022/03/07 02:01:48;;;;;;;4.83;4.00;;;;;;;-1.65;53.75;100913.84;5063369;28;20821;-58
2022/03/07 02:04:14;;;;;;;5.53;4.90;;;;;;;-1.59;53.59;100902.13;5073462;28;20399;-59
2022/03/07 02:06:40;;;;;;;5.77;4.70;;;;;;;-1.55;53.05;100911.41;5070316;28;20181;-60
2022/03/07 02:09:07;;;;;;;6.13;5.00;;;;;;;-1.52;52.65;100913.97;5069755;28;20479;-58
2022/03/07 02:11:34;;;;;;;5.63;5.00;;;;;;;-1.54;52.23;100908.03;5063002;28;20532;-59
2022/03/07 02:14:11;;;;;;;6.00;5.40;;;;;;;-1.50;52.56;100912.28;5069998;28;20413;-59
2022/03/07 02:16:36;;;;;;;5.90;5.30;;;;;;;-1.52;52.19;100897.13;5068956;28;20415;-58
2022/03/07 02:19:02;;;;;;;6.20;5.60;;;;;;;-1.55;51.75;100902.16;5071047;28;20407;-58
2022/03/07 02:21:30;;;;;;;6.70;6.00;;;;;;;-1.58;51.80;100907.16;5072109;28;20236;-58
2022/03/07 02:23:55;;;;;;;6.83;5.40;;;;;;;-1.57;52.02;100908.88;5069973;28;20179;-58
2022/03/07 02:26:20;;;;;;;6.83;6.13;;;;;;;-1.56;51.66;100897.09;5071440;28;20434;-58
2022/03/07 02:28:46;;;;;;;7.60;6.43;;;;;;;-1.54;51.45;100898.81;5077916;28;20255;-59
2022/03/07 02:31:16;;;;;;;7.27;6.17;;;;;;;-1.54;51.39;100906.38;5074051;28;20251;-58
2022/03/07 02:33:41;;;;;;;7.77;6.07;;;;;;;-1.55;51.16;100907.22;5073720;28;20267;-58
2022/03/07 02:36:07;;;;;;;8.23;6.57;;;;;;;-1.58;51.20;100889.50;5075024;28;20714;-58
2022/03/07 02:38:32;;;;;;;7.13;6.43;;;;;;;-1.53;51.29;100897.13;5072849;28;20209;-58
2022/03/07 02:40:57;;;;;;;7.47;6.57;;;;;;;-1.57;51.33;100896.25;5071896;28;20572;-58
2022/03/07 02:43:23;;;;;;;8.23;6.83;;;;;;;-1.54;51.69;100898.81;5082820;28;20174;-58
2022/03/07 02:45:48;;;;;;;9.63;7.53;;;;;;;-1.58;51.67;100899.59;5075006;28;20177;-58
2022/03/07 02:48:14;;;;;;;9.17;7.20;;;;;;;-1.58;51.07;100887.00;5074186;28;20684;-58
2022/03/07 02:50:40;;;;;;;8.23;6.87;;;;;;;-1.62;50.95;100891.16;5064368;28;20225;-58
2022/03/07 02:53:06;;;;;;;8.17;7.30;;;;;;;-1.59;51.63;100875.19;5061950;28;20535;-58
2022/03/07 02:55:32;;;;;;;8.53;6.70;;;;;;;-1.65;51.47;100885.25;5073058;28;20179;-58
2022/03/07 02:57:57;;;;;;;9.13;7.00;;;;;;;-1.69;51.64;100884.38;5072432;28;20795;-59
2022/03/07 03:00:23;;;;;;;7.13;6.30;;;;;;;-1.66;51.63;100898.72;5066911;28;20458;-57
2022/03/07 03:02:48;;;;;;;12.67;7.40;;;;;;;-1.72;51.65;100883.53;5087333;28;20182;-58
2022/03/07 03:05:14;;;;;;;8.23;6.70;;;;;;;-1.71;51.94;100886.06;5074415;28;20181;-58
2022/03/07 03:07:40;;;;;;;10.53;7.47;;;;;;;-1.72;51.89;100886.03;5073591;28;20245;-59
2022/03/07 03:10:06;;;;;;;10.13;8.37;;;;;;;-1.77;51.54;100891.03;5064417;28;20211;-58
2022/03/07 03:12:32;;;;;;;8.73;7.90;;;;;;;-1.78;51.99;100879.25;5089030;28;20268;-59
2022/03/07 03:14:57;;;;;;;10.67;9.00;;;;;;;-1.81;52.06;100886.78;5074088;28;20486;-58
2022/03/07 03:17:24;;;;;;;9.83;8.17;;;;;;;-1.80;51.89;100885.94;5073481;28;20197;-58
2022/03/07 03:19:49;;;;;;;10.77;7.97;;;;;;;-1.85;52.37;100888.47;5072928;28;20287;-60
2022/03/07 03:22:15;;;;;;;9.77;8.50;;;;;;;-1.85;52.62;100883.41;5070324;28;20515;-59
2022/03/07 03:24:40;;;;;;;12.43;9.07;;;;;;;-1.89;52.66;100889.25;5075715;28;20175;-59
2022/03/07 03:27:06;;;;;;;14.17;8.47;;;;;;;-1.96;52.81;100900.09;5061882;28;20189;-59
2022/03/07 03:29:31;;;;;;;10.97;8.87;;;;;;;-1.93;52.48;100895.09;5052769;28;20189;-59
2022/03/07 03:31:57;;;;;;;10.00;8.13;;;;;;;-1.99;52.79;100895.88;5060035;28;20313;-59
2022/03/07 03:34:22;;;;;;;9.93;8.27;;;;;;;-2.00;52.65;100904.28;5073969;28;20188;-58
2022/03/07 03:36:47;;;;;;;13.43;9.93;;;;;;;-2.02;52.77;100905.06;5074090;28;20185;-58
2022/03/07 03:39:14;;;;;;;11.30;9.57;;;;;;;-2.05;52.66;100900.00;5071697;28;20552;-59
2022/03/07 03:41:39;;;;;;;11.30;9.80;;;;;;;-2.06;53.00;100906.75;5065343;28;20251;-59
2022/03/07 03:44:04;;;;;;;12.57;9.17;;;;;;;-2.12;53.21;100909.19;5076538;28;20407;-59
2022/03/07 03:46:30;;;;;;;10.73;9.50;;;;;;;-2.06;53.09;100908.41;5074029;28;20219;-60
2022/03/07 03:48:55;;;;;;;12.53;9.97;;;;;;;-2.11;53.57;100911.72;5073151;28;20201;-57
2022/03/07 03:51:20;;;;;;;11.90;10.50;;;;;;;-2.14;53.85;100913.38;5062689;28;20234;-58
2022/03/07 03:53:46;;;;;;;11.33;9.40;;;;;;;-2.13;53.03;100905.81;5073093;28;20173;-58
2022/03/07 03:56:11;;;;;;;12.10;10.27;;;;;;;-2.15;53.32;100915.03;5073392;28;20625;-58
2022/03/07 03:58:36;;;;;;;11.20;9.57;;;;;;;-2.14;53.07;100913.38;5072895;28;20239;-57
2022/03/07 04:01:02;;;;;;;13.53;10.93;;;;;;;-2.14;52.96;100914.19;5060415;28;20224;-58
2022/03/07 04:03:27;;;;;;;13.10;10.60;;;;;;;-2.15;52.98;100916.72;5081388;28;20685;-58
2022/03/07 04:05:52;;;;;;;12.43;10.03;;;;;;;-2.17;52.92;100918.38;5073267;28;20207;-58
2022/03/07 04:08:18;;;;;;;11.33;10.13;;;;;;;-2.16;53.34;100918.41;5072521;28;20239;-58
2022/03/07 04:10:43;;;;;;;12.80;10.43;;;;;;;-2.21;53.34;100914.97;5068419;28;20237;-59
2022/03/07 04:13:08;;;;;;;11.27;8.83;;;;;;;-2.25;53.67;100917.44;5083237;28;20181;-58
2022/03/07 04:15:38;;;;;;;14.33;10.20;;;;;;;-2.31;53.97;100923.25;5066986;28;20259;-58
2022/03/07 04:18:05;;;;;;;12.20;9.90;;;;;;;-2.31;53.93;100921.59;5071405;28;20541;-58
2022/03/07 04:20:30;;;;;;;12.83;9.80;;;;;;;-2.35;54.45;100924.06;5060659;28;20546;-58
2022/03/07 04:22:56;;;;;;;12.23;10.93;;;;;;;-2.38;54.37;100931.56;5072978;28;20415;-58
2022/03/07 04:25:21;;;;;;;11.50;10.27;;;;;;;-2.36;54.45;100933.28;5072563;28;20180;-58
2022/03/07 04:27:46;;;;;;;12.53;10.17;;;;;;;-2.43;54.96;100931.53;5072263;28;20529;-58
2022/03/07 04:30:12;;;;;;;13.40;10.53;;;;;;;-2.39;54.93;100932.38;5041965;28;20211;-58
2022/03/07 04:32:38;;;;;;;15.10;11.83;;;;;;;-2.44;54.81;100937.38;5072153;28;20234;-58
2022/03/07 04:35:05;;;;;;;15.30;12.23;;;;;;;-2.42;54.86;100933.19;5072693;28;20177;-58
2022/03/07 04:37:31;;;;;;;16.47;11.13;;;;;;;-2.43;54.78;100941.59;5072030;28;20225;-60
2022/03/07 04:39:58;;;;;;;14.33;11.80;;;;;;;-2.52;55.41;100937.28;5070921;28;20798;-58
2022/03/07 04:42:23;;;;;;;17.20;11.93;;;;;;;-2.53;55.74;100939.78;5045068;28;20227;-57
2022/03/07 04:44:49;;;;;;;15.63;11.63;;;;;;;-2.57;55.68;100943.94;5072657;28;20620;-59
2022/03/07 04:47:14;;;;;;;13.53;11.57;;;;;;;-2.64;56.13;100942.19;5072252;28;20532;-62
2022/03/07 04:49:39;;;;;;;14.20;11.47;;;;;;;-2.62;55.51;100943.03;5071409;28;20183;-59
2022/03/07 04:52:05;;;;;;;13.60;11.47;;;;;;;-2.67;56.04;100945.47;5061216;28;20256;-58
2022/03/07 04:54:30;;;;;;;15.63;12.47;;;;;;;-2.71;56.11;100948.78;5072242;28;20180;-59
2022/03/07 04:56:56;;;;;;;15.03;12.10;;;;;;;-2.73;56.41;100937.00;5072046;28;20283;-59
2022/03/07 04:59:21;;;;;;;13.93;11.37;;;;;;;-2.75;56.81;100947.06;5071891;28;20252;-59
2022/03/07 05:01:47;;;;;;;15.73;12.37;;;;;;;-2.74;56.77;100946.25;5076023;28;20220;-59
2022/03/07 05:04:12;;;;;;;16.00;11.60;;;;;;;-2.79;57.07;100947.81;5074237;28;20230;-59
2022/03/07 05:06:38;;;;;;;14.83;11.97;;;;;;;-2.79;57.14;100943.66;5072278;28;20212;-59
2022/03/07 05:09:03;;;;;;;16.83;13.93;;;;;;;-2.73;56.56;100950.44;5071601;28;20205;-59
2022/03/07 05:11:28;;;;;;;13.80;12.03;;;;;;;-2.79;57.02;100953.72;5073141;28;20219;-59
2022/03/07 05:13:54;;;;;;;18.43;12.70;;;;;;;-2.83;56.94;100952.00;5076699;28;20322;-58
2022/03/07 05:16:19;;;;;;;14.63;12.70;;;;;;;-2.78;56.94;100957.06;5072178;28;20192;-58
2022/03/07 05:18:45;;;;;;;14.03;12.03;;;;;;;-2.84;56.77;100957.00;5071607;28;20619;-58
2022/03/07 05:21:10;;;;;;;15.90;12.80;;;;;;;-2.78;56.63;100962.13;5072321;28;20698;-61
2022/03/07 05:23:35;;;;;;;13.87;11.67;;;;;;;-2.74;56.68;100968.03;5078437;28;20215;-59
2022/03/07 05:26:00;;;;;;;18.03;12.97;;;;;;;-2.76;56.91;100966.34;5071742;28;20259;-59
2022/03/07 05:28:26;;;;;;;16.10;12.43;;;;;;;-2.66;56.86;100963.97;5071679;28;20716;-59
2022/03/07 05:30:51;;;;;;;15.20;11.57;;;;;;;-2.65;56.86;100965.66;5061265;28;20220;-58
2022/03/07 05:33:16;;;;;;;17.13;13.30;;;;;;;-2.57;56.70;100965.75;5071077;28;20687;-60
2022/03/07 05:35:41;;;;;;;15.67;12.10;;;;;;;-2.53;56.63;100963.31;5072247;28;20177;-60
2022/03/07 05:38:08;;;;;;;14.57;12.70;;;;;;;-2.47;56.55;100963.41;5071321;28;20224;-58
2022/03/07 05:40:34;;;;;;;14.97;12.17;;;;;;;-2.41;56.86;100964.31;5045556;28;20286;-59
2022/03/07 05:42:59;;;;;;;16.23;13.37;;;;;;;-2.34;56.61;100953.47;5067165;28;20477;-59
2022/03/07 05:45:25;;;;;;;14.20;12.23;;;;;;;-2.44;56.83;100958.38;5050201;28;20886;-59
2022/03/07 05:47:50;;;;;;;15.77;11.83;;;;;;;-2.52;57.16;100964.97;5051096;28;20212;-60
2022/03/07 05:50:15;;;;;;;17.07;13.30;;;;;;;-2.55;57.34;100964.97;5047896;28;20231;-59
2022/03/07 05:52:41;;;;;;;15.40;12.30;;;;;;;-2.55;57.05;100966.66;5065161;28;20637;-58
2022/03/07 05:55:08;;;;;;;14.83;12.37;;;;;;;-2.52;57.33;100969.19;5051578;28;20226;-60
2022/03/07 05:57:34;;;;;;;14.23;11.77;;;;;;;-2.48;56.97;100973.44;5055337;28;20180;-58
2022/03/07 05:59:59;;;;;;;18.50;12.20;;;;;;;-2.51;56.86;100966.69;5070400;28;20469;-58
2022/03/07 06:02:24;;;;;;;14.93;12.60;;;;;;;-2.57;57.24;100970.81;5062778;28;20242;-59
2022/03/07 06:04:49;;;;;;;13.23;11.83;;;;;;;-2.54;57.36;100974.22;5075441;28;20636;-58
2022/03/07 06:07:15;;;;;;;17.00;12.53;;;;;;;-2.67;57.62;100975.69;5075381;28;20188;-59
2022/03/07 06:09:40;;;;;;;17.83;12.73;;;;;;;-2.62;57.25;100981.69;5074725;28;20667;-61
2022/03/07 06:12:06;;;;;;;15.13;13.43;;;;;;;-2.51;57.45;100991.03;5064027;28;20257;-58
2022/03/07 06:14:31;;;;;;;15.33;12.00;;;;;;;-2.52;57.52;100991.88;5073809;28;20603;-59
2022/03/07 06:16:57;;;;;;;15.07;11.97;;;;;;;-2.45;57.43;100998.69;5075607;28;20176;-59
2022/03/07 06:19:23;;;;;;;14.40;11.47;;;;;;;-2.44;57.00;100986.09;5077493;28;20188;-58
2022/03/07 06:21:48;;;;;;;16.67;11.73;;;;;;;-2.29;56.85;100992.19;5066989;28;20293;-58
2022/03/07 06:24:14;;;;;;;16.57;12.70;;;;;;;-2.29;56.73;100997.22;5076890;28;20807;-59
2022/03/07 06:26:39;;;;;;;17.40;11.53;;;;;;;-2.25;56.11;100991.38;5075136;28;20164;-59
2022/03/07 06:29:05;;;;;;;15.83;12.53;;;;;;;-2.17;56.43;100981.38;5074486;28;20231;-59
2022/03/07 06:31:31;;;;;;;19.80;12.03;;;;;;;-2.12;55.50;100987.34;5053912;28;20233;-59
2022/03/07 06:33:56;;;;;;;13.10;11.70;;;;;;;-2.05;55.59;100989.09;5074457;28;20404;-58
2022/03/07 06:36:21;;;;;;;13.63;11.60;;;;;;;-2.09;54.98;100989.06;5073466;28;20290;-59
2022/03/07 06:38:47;;;;;;;12.53;11.33;;;;;;;-2.20;55.35;100996.47;5074491;28;20224;-59
2022/03/07 06:41:12;;;;;;;13.03;11.60;;;;;;;-2.12;55.20;100993.22;5063698;28;20590;-59
2022/03/07 06:43:39;;;;;;;14.00;11.73;;;;;;;-2.06;55.12;100994.13;5066246;28;20181;-58
2022/03/07 06:46:04;;;;;;;13.33;11.77;;;;;;;-2.16;54.82;100993.16;5073335;28;20528;-59
2022/03/07 06:48:29;;;;;;;14.67;11.37;;;;;;;-2.13;54.81;100991.53;5074097;28;20517;-59
2022/03/07 06:50:55;;;;;;;19.73;11.13;;;;;;;-2.13;54.37;100994.06;5063727;28;20282;-59
2022/03/07 06:53:20;;;;;;;12.93;11.53;;;;;;;-1.99;53.89;100993.38;5073413;28;20180;-60
2022/03/07 06:55:45;;;;;;;14.97;10.00;;;;;;;-1.52;53.67;100995.53;5072941;28;20261;-60
2022/03/07 06:58:11;;;;;;;15.33;9.87;;;;;;;-0.61;50.61;100995.41;5074006;28;20618;-61
2022/03/07 07:00:37;;;;;;;10.57;9.33;;;;;;;-0.03;48.03;100997.34;5068601;28;20306;-58
2022/03/07 07:03:02;;;;;;;13.53;10.27;;;;;;;0.20;47.79;100995.75;5085689;28;20565;-60
2022/03/07 07:05:28;;;;;;;11.43;10.23;;;;;;;0.49;46.83;100990.75;5073900;28;20195;-59
2022/03/07 07:07:54;;;;;;;12.73;8.37;;;;;;;1.34;44.24;100998.34;5073552;28;20211;-59
2022/03/07 07:10:19;;;;;;;11.13;9.30;;;;;;;1.75;44.27;101004.97;5066151;28;20180;-58
2022/03/07 07:12:49;;;;;;;10.97;9.13;;;;;;;1.82;42.55;100998.19;5081513;28;20184;-59
2022/03/07 07:15:15;;;;;;;12.03;9.67;;;;;;;1.66;42.76;100997.38;5075650;28;20183;-60
2022/03/07 07:17:41;;;;;;;9.93;8.97;;;;;;;1.82;42.66;101004.97;5071931;28;20199;-61
2022/03/07 07:20:08;;;;;;;10.23;8.63;;;;;;;2.13;41.67;101008.19;5064251;28;20169;-60
2022/03/07 07:22:34;;;;;;;8.67;7.87;;;;;;;2.14;41.56;101006.53;5081896;28;20213;-59
2022/03/07 07:25:00;;;;;;;10.17;8.43;;;;;;;2.69;40.17;100998.56;5069913;28;20213;-59
2022/03/07 07:27:26;;;;;;;9.43;7.83;;;;;;;2.84;39.39;101001.81;5070931;28;20683;-62
2022/03/07 07:29:51;;;;;;;14.90;7.87;;;;;;;2.82;40.14;101001.00;5071654;28;20268;-59
2022/03/07 07:32:16;;;;;;;9.93;7.97;;;;;;;2.33;40.26;101004.72;5078366;28;20227;-59
2022/03/07 07:34:42;;;;;;;8.17;7.37;;;;;;;2.81;39.43;101006.94;5056682;28;20196;-60
2022/03/07 07:37:08;;;;;;;7.40;6.70;;;;;;;3.44;38.18;101008.09;5053012;28;20540;-62
2022/03/07 07:39:33;;;;;;;7.80;7.00;;;;;;;3.22;37.53;101014.22;5056091;28;20236;-60
2022/03/07 07:41:58;;;;;;;8.23;6.37;;;;;;;3.01;38.41;101010.16;5078032;28;20230;-59
2022/03/07 07:44:24;;;;;;;8.07;6.87;;;;;;;2.51;39.05;101014.75;5056721;28;20173;-60
2022/03/07 07:46:49;;;;;;;6.40;5.80;;;;;;;2.70;38.78;101020.53;5051688;28;20621;-59
2022/03/07 07:49:15;;;;;;;8.20;6.60;;;;;;;1.85;40.08;101026.09;5052343;28;20296;-60
2022/03/07 07:51:41;;;;;;;8.07;6.47;;;;;;;1.31;41.18;101030.47;5054356;28;20251;-62
2022/03/07 07:54:06;;;;;;;9.90;7.03;;;;;;;1.28;42.51;101032.13;5071834;28;20210;-59
2022/03/07 07:56:31;;;;;;;10.63;6.83;;;;;;;1.61;41.04;101035.47;5072134;28;20180;-59
2022/03/07 07:58:57;;;;;;;6.60;6.00;;;;;;;1.42;41.00;101037.19;5069241;28;20182;-60
2022/03/07 08:01:23;;;;;;;6.50;5.90;;;;;;;1.20;41.13;101038.91;5049105;28;20233;-60
2022/03/07 08:03:49;;;;;;;8.47;5.93;;;;;;;0.63;42.49;101051.53;5071912;28;20307;-60
2022/03/07 08:06:14;;;;;;;7.13;6.43;;;;;;;0.47;43.21;101041.38;5071516;28;20255;-61
2022/03/07 08:08:39;;;;;;;8.03;5.60;;;;;;;0.69;42.91;101049.00;5063683;28;20228;-60
2022/03/07 08:11:04;;;;;;;6.40;5.70;;;;;;;0.71;42.76;101043.94;5061150;28;20237;-60
2022/03/07 08:13:30;;;;;;;6.57;5.97;;;;;;;1.07;42.48;101038.06;5059197;28;20332;-60
2022/03/07 08:15:55;;;;;;;25.83;7.77;;;;;;;1.30;41.35;101034.66;5069756;28;20225;-62
2022/03/07 08:18:21;;;;;;;7.67;5.90;;;;;;;0.88;41.94;101043.97;5059882;28;20195;-62
2022/03/07 08:20:46;;;;;;;13.10;6.83;;;;;;;0.60;41.98;101047.31;5047773;28;20662;-60
2022/03/07 08:23:11;;;;;;;6.20;5.07;;;;;;;0.39;42.49;101044.75;5057248;28;20639;-59
2022/03/07 08:25:37;;;;;;;6.63;6.03;;;;;;;0.14;42.98;101047.19;5071870;28;20188;-60
2022/03/07 08:28:03;;;;;;;7.70;6.17;;;;;;;0.24;42.93;101043.84;5072008;28;20566;-60
2022/03/07 08:30:29;;;;;;;9.00;6.10;;;;;;;0.43;43.08;101046.44;5040037;28;20225;-59
2022/03/07 08:32:55;;;;;;;7.03;5.90;;;;;;;0.32;42.92;101046.41;5057618;28;20318;-60
2022/03/07 08:35:21;;;;;;;6.37;5.77;;;;;;;0.08;42.97;101055.59;5070809;28;20176;-60
2022/03/07 08:37:48;;;;;;;8.60;5.07;;;;;;;0.16;43.25;101058.16;5070414;28;20231;-59
2022/03/07 08:40:16;;;;;;;31.57;7.07;;;;;;;0.32;43.07;101044.72;5060782;28;20176;-58
2022/03/07 08:42:42;;;;;;;4.37;3.97;;;;;;;0.20;42.94;101051.41;5071567;28;20631;-59
2022/03/07 08:45:08;;;;;;;7.93;5.60;;;;;;;0.17;43.33;101059.00;5070987;28;20175;-59
2022/03/07 08:47:35;;;;;;;5.57;4.93;;;;;;;0.38;43.19;101045.59;5069801;28;20641;-59
2022/03/07 08:50:01;;;;;;;4.97;4.47;;;;;;;0.37;43.11;101052.31;5055599;28;20664;-60
2022/03/07 08:52:26;;;;;;;10.67;5.47;;;;;;;0.39;43.11;101054.88;5057200;28;20228;-60
2022/03/07 08:54:51;;;;;;;5.33;4.83;;;;;;;0.35;42.70;101061.59;5051008;28;20185;-60
2022/03/07 08:57:17;;;;;;;5.37;4.87;;;;;;;0.31;43.16;101048.09;5054944;28;20180;-58
2022/03/07 08:59:43;;;;;;;9.07;5.47;;;;;;;0.24;43.23;101050.59;5071829;28;20180;-58
2022/03/07 09:02:09;;;;;;;8.87;5.47;;;;;;;0.44;43.18;101043.91;5046126;28;20251;-61
2022/03/07 09:04:40;;;;;;;5.87;5.30;;;;;;;0.82;42.60;101044.81;5070619;28;20184;-59
2022/03/07 09:07:06;;;;;;;7.07;5.47;;;;;;;0.97;42.08;101038.91;5071994;28;20203;-62
2022/03/07 09:09:31;;;;;;;5.53;5.03;;;;;;;1.24;42.14;101045.66;5070143;28;20240;-62
2022/03/07 09:11:56;;;;;;;6.20;4.30;;;;;;;1.31;41.26;101045.66;5052534;28;20299;-60
2022/03/07 09:14:21;;;;;;;6.23;5.37;;;;;;;1.37;41.86;101041.41;5068282;28;20185;-61
2022/03/07 09:16:47;;;;;;;6.77;6.07;;;;;;;1.32;40.80;101034.69;5062128;28;20193;-59
2022/03/07 09:19:12;;;;;;;5.47;4.87;;;;;;;1.65;40.69;101043.06;5050731;28;20185;-59
2022/03/07 09:21:37;;;;;;;5.90;5.40;;;;;;;2.92;38.47;101038.19;5053567;28;20232;-59
2022/03/07 09:24:03;;;;;;;9.70;5.60;;;;;;;4.23;36.50;101030.91;5050554;28;20170;-59
2022/03/07 09:26:28;;;;;;;8.47;4.57;;;;;;;4.42;34.84;101036.59;5051782;28;20180;-59
2022/03/07 09:28:54;;;;;;;5.93;4.50;;;;;;;3.84;35.85;101039.00;5057060;28;20406;-60
2022/03/07 09:31:19;;;;;;;5.33;4.83;;;;;;;3.97;36.09;101044.81;5050952;28;20320;-60
2022/03/07 09:33:45;;;;;;;6.10;4.93;;;;;;;3.94;35.59;101038.91;5062107;28;20212;-59
2022/03/07 09:36:10;;;;;;;10.47;5.37;;;;;;;3.82;36.02;101050.06;5055979;28;20290;-59
2022/03/07 09:38:36;;;;;;;6.43;5.47;;;;;;;4.27;35.34;101042.72;5054373;28;20925;-60
2022/03/07 09:41:03;;;;;;;6.05;5.50;;;;;;;4.23;35.28;101043.66;5059984;28;20434;-60
2022/03/07 09:43:30;;;;;;;7.23;5.10;;;;;;;4.60;35.46;101042.28;5070796;28;20183;-61
2022/03/07 09:45:56;;;;;;;6.07;5.43;;;;;;;5.95;32.47;101043.34;5069679;28;20437;-60
2022/03/07 09:48:23;;;;;;;5.90;5.37;;;;;;;5.90;33.06;101040.88;5069867;28;20493;-59
2022/03/07 09:50:49;;;;;;;11.20;5.50;;;;;;;6.11;32.04;101029.41;5056755;28;20597;-60
2022/03/07 09:53:16;;;;;;;8.47;4.93;;;;;;;6.71;31.45;101034.94;5070996;28;20255;-60
2022/03/07 09:55:42;;;;;;;5.43;4.93;;;;;;;5.38;33.10;101027.41;5070451;28;20200;-59
2022/03/07 09:58:08;;;;;;;5.40;4.90;;;;;;;5.78;33.14;101042.00;5070981;28;20185;-61
2022/03/07 10:00:34;;;;;;;7.97;4.87;;;;;;;5.88;33.02;101035.00;5062979;28;20223;-60
2022/03/07 10:03:05;;;;;;;6.10;5.50;;;;;;;6.12;32.87;101038.78;5070111;28;20184;-60
2022/03/07 10:05:36;;;;;;;5.63;4.57;;;;;;;6.32;32.65;101027.28;5071186;28;20206;-60
2022/03/07 10:08:04;;;;;;;6.63;5.37;;;;;;;4.98;34.81;101040.84;5071776;28;20295;-60
2022/03/07 10:10:31;;;;;;;5.73;5.10;;;;;;;5.53;34.39;101035.66;5062780;28;20308;-61
2022/03/07 10:13:01;;;;;;;5.53;5.03;;;;;;;6.47;32.23;101026.09;5069483;28;20187;-60
2022/03/07 10:15:26;;;;;;;5.70;4.60;;;;;;;7.02;31.66;101025.66;5070615;28;20216;-60
2022/03/07 10:17:54;;;;;;;5.47;5.07;;;;;;;7.34;31.09;101018.91;5060634;28;20213;-59
2022/03/07 10:20:21;;;;;;;5.97;4.90;;;;;;;5.85;32.73;101024.00;5041611;28;20169;-60
2022/03/07 10:22:53;;;;;;;6.40;4.97;;;;;;;5.52;33.37;101027.19;5049730;28;20190;-60
2022/03/07 10:25:24;;;;;;;5.17;4.67;;;;;;;4.85;34.39;101012.16;5049679;28;20197;-60
2022/03/07 10:27:50;;;;;;;5.20;4.70;;;;;;;5.38;33.82;101016.38;5048559;28;20194;-60
2022/03/07 10:30:25;;;;;;;5.37;4.87;;;;;;;5.37;33.75;101020.66;5041772;28;20188;-59
2022/03/07 10:32:53;;;;;;;11.50;5.37;;;;;;;5.30;34.18;101012.25;5067475;28;20602;-61
2022/03/07 10:35:41;;;;;;;5.63;5.13;;;;;;;3.94;36.57;101026.19;5059947;28;20261;-59
2022/03/07 10:38:17;;;;;;;8.63;4.80;;;;;;;3.86;36.48;101031.38;5050496;28;20700;-62
2022/03/07 10:40:47;;;;;;;6.17;5.37;;;;;;;3.25;37.66;101023.53;5039193;28;20668;-59
2022/03/07 10:43:13;;;;;;;9.43;6.23;;;;;;;2.71;38.94;101021.41;5039635;28;20265;-60
2022/03/07 10:45:49;;;;;;;5.97;5.47;;;;;;;2.55;39.38;101018.97;5050617;28;20239;-60
2022/03/07 10:48:15;;;;;;;7.00;5.97;;;;;;;2.69;39.99;101015.50;5082439;28;20204;-60
2022/03/07 10:50:50;;;;;;;5.70;5.10;;;;;;;2.74;39.35;101023.91;5050269;28;20548;-61
2022/03/07 10:53:15;;;;;;;8.13;5.20;;;;;;;2.64;39.53;101013.00;5052900;28;20183;-60
2022/03/07 10:55:49;;;;;;;7.67;5.80;;;;;;;2.83;40.79;101023.84;5052212;28;20468;-63
2022/03/07 10:58:15;;;;;;;6.43;5.87;;;;;;;2.78;39.75;101020.50;5063753;28;20180;-60
2022/03/07 11:00:51;;;;;;;7.23;5.83;;;;;;;2.77;40.04;101012.88;5063866;28;20313;-60
2022/03/07 11:03:37;;;;;;;5.70;5.13;;;;;;;2.70;40.03;101012.94;5062930;28;20197;-65
2022/03/07 11:06:03;;;;;;;6.60;5.93;;;;;;;2.68;40.14;101012.13;5067091;28;20189;-60
2022/03/07 11:08:30;;;;;;;6.57;5.97;;;;;;;2.52;39.91;101015.63;5072417;28;20211;-60
2022/03/07 11:10:59;;;;;;;6.33;5.73;;;;;;;2.56;40.14;101012.19;5058752;28;20233;-60
2022/03/07 11:13:29;;;;;;;7.23;6.53;;;;;;;2.56;40.35;101009.66;5052667;28;20176;-59
2022/03/07 11:16:01;;;;;;;7.20;5.07;;;;;;;2.89;39.75;101017.88;5052606;28;20217;-60